sensor_id;sensor_type;location;lat;lon;timestamp;P1;durP1;ratioP1;P2;durP2;ratioP2
52043;SDS011;38053;53.100;6.078;2023-03-13T00:02:01;46.67;;;8.65;;
52043;SDS011;38053;53.100;6.078;2023-03-13T00:04:27;58.92;;;12.70;;
52043;SDS011;38053;53.100;6.078;2023-03-13T00:06:53;35.08;;;7.90;;
52043;SDS011;38053;53.100;6.078;2023-03-13T00:09:18;41.08;;;10.48;;
52043;SDS011;38053;53.100;6.078;2023-03-13T00:11:44;29.52;;;7.85;;
52043;SDS011;38053;53.100;6.078;2023-03-13T00:14:11;54.85;;;11.20;;
52043;SDS011;38053;53.100;6.078;2023-03-13T00:16:37;40.47;;;7.35;;
52043;SDS011;38053;53.100;6.078;2023-03-13T00:19:04;51.63;;;8.45;;
52043;SDS011;38053;53.100;6.078;2023-03-13T00:21:34;42.67;;;11.35;;
52043;SDS011;38053;53.100;6.078;2023-03-13T00:24:02;48.72;;;7.65;;
52043;SDS011;38053;53.100;6.078;2023-03-13T00:26:28;38.00;;;8.95;;
52043;SDS011;38053;53.100;6.078;2023-03-13T00:28:58;52.08;;;9.68;;
52043;SDS011;38053;53.100;6.078;2023-03-13T00:31:27;33.70;;;8.50;;
52043;SDS011;38053;53.100;6.078;2023-03-13T00:33:58;36.30;;;6.65;;
52043;SDS011;38053;53.100;6.078;2023-03-13T00:36:26;36.83;;;7.05;;
52043;SDS011;38053;53.100;6.078;2023-03-13T00:38:59;33.58;;;7.47;;
52043;SDS011;38053;53.100;6.078;2023-03-13T00:41:27;51.30;;;9.75;;
52043;SDS011;38053;53.100;6.078;2023-03-13T00:43:59;34.63;;;7.50;;
52043;SDS011;38053;53.100;6.078;2023-03-13T00:46:26;45.90;;;9.07;;
52043;SDS011;38053;53.100;6.078;2023-03-13T00:48:53;41.25;;;9.85;;
52043;SDS011;38053;53.100;6.078;2023-03-13T00:51:21;37.83;;;7.45;;
52043;SDS011;38053;53.100;6.078;2023-03-13T00:53:53;39.13;;;9.85;;
52043;SDS011;38053;53.100;6.078;2023-03-13T00:56:21;44.40;;;9.93;;
52043;SDS011;38053;53.100;6.078;2023-03-13T00:58:47;37.28;;;8.55;;
52043;SDS011;38053;53.100;6.078;2023-03-13T01:03:46;37.95;;;9.85;;
52043;SDS011;38053;53.100;6.078;2023-03-13T01:06:14;44.60;;;8.57;;
52043;SDS011;38053;53.100;6.078;2023-03-13T01:08:42;38.30;;;9.77;;
52043;SDS011;38053;53.100;6.078;2023-03-13T01:11:13;31.00;;;7.93;;
52043;SDS011;38053;53.100;6.078;2023-03-13T01:13:42;40.80;;;9.63;;
52043;SDS011;38053;53.100;6.078;2023-03-13T01:16:12;44.85;;;10.35;;
52043;SDS011;38053;53.100;6.078;2023-03-13T01:18:43;39.08;;;9.52;;
52043;SDS011;38053;53.100;6.078;2023-03-13T01:21:11;36.15;;;9.38;;
52043;SDS011;38053;53.100;6.078;2023-03-13T01:23:38;34.28;;;7.93;;
52043;SDS011;38053;53.100;6.078;2023-03-13T01:26:04;37.30;;;9.65;;
52043;SDS011;38053;53.100;6.078;2023-03-13T01:28:32;42.17;;;9.13;;
52043;SDS011;38053;53.100;6.078;2023-03-13T01:30:59;44.13;;;10.18;;
52043;SDS011;38053;53.100;6.078;2023-03-13T01:33:25;43.35;;;7.43;;
52043;SDS011;38053;53.100;6.078;2023-03-13T01:35:51;38.15;;;9.00;;
52043;SDS011;38053;53.100;6.078;2023-03-13T01:38:16;36.50;;;8.98;;
52043;SDS011;38053;53.100;6.078;2023-03-13T01:40:46;35.20;;;8.18;;
52043;SDS011;38053;53.100;6.078;2023-03-13T01:48:48;46.40;;;8.23;;
52043;SDS011;38053;53.100;6.078;2023-03-13T01:51:26;39.33;;;9.55;;
52043;SDS011;38053;53.100;6.078;2023-03-13T01:57:02;37.13;;;6.90;;
52043;SDS011;38053;53.100;6.078;2023-03-13T01:59:36;44.45;;;9.80;;
52043;SDS011;38053;53.100;6.078;2023-03-13T02:02:11;36.22;;;10.10;;
52043;SDS011;38053;53.100;6.078;2023-03-13T02:04:38;36.85;;;8.07;;
52043;SDS011;38053;53.100;6.078;2023-03-13T02:07:11;32.50;;;7.15;;
52043;SDS011;38053;53.100;6.078;2023-03-13T02:09:43;40.67;;;7.78;;
52043;SDS011;38053;53.100;6.078;2023-03-13T02:12:20;34.08;;;8.57;;
52043;SDS011;38053;53.100;6.078;2023-03-13T02:14:54;34.08;;;8.05;;
52043;SDS011;38053;53.100;6.078;2023-03-13T02:17:23;35.03;;;10.07;;
52043;SDS011;38053;53.100;6.078;2023-03-13T02:19:54;35.58;;;8.38;;
52043;SDS011;38053;53.100;6.078;2023-03-13T02:22:30;21.92;;;7.65;;
52043;SDS011;38053;53.100;6.078;2023-03-13T02:28:06;31.75;;;7.88;;
52043;SDS011;38053;53.100;6.078;2023-03-13T02:30:39;23.75;;;6.47;;
52043;SDS011;38053;53.100;6.078;2023-03-13T02:33:07;24.67;;;6.80;;
52043;SDS011;38053;53.100;6.078;2023-03-13T02:35:33;31.73;;;7.53;;
52043;SDS011;38053;53.100;6.078;2023-03-13T02:38:04;24.67;;;7.35;;
52043;SDS011;38053;53.100;6.078;2023-03-13T02:40:34;18.23;;;6.13;;
52043;SDS011;38053;53.100;6.078;2023-03-13T02:43:04;23.42;;;5.80;;
52043;SDS011;38053;53.100;6.078;2023-03-13T02:45:58;22.20;;;5.63;;
52043;SDS011;38053;53.100;6.078;2023-03-13T02:48:48;15.18;;;5.70;;
52043;SDS011;38053;53.100;6.078;2023-03-13T02:53:57;20.25;;;5.72;;
52043;SDS011;38053;53.100;6.078;2023-03-13T02:56:28;18.00;;;6.38;;
52043;SDS011;38053;53.100;6.078;2023-03-13T02:58:57;18.95;;;5.60;;
52043;SDS011;38053;53.100;6.078;2023-03-13T03:01:24;22.08;;;6.43;;
52043;SDS011;38053;53.100;6.078;2023-03-13T03:03:50;13.57;;;5.38;;
52043;SDS011;38053;53.100;6.078;2023-03-13T03:06:16;21.23;;;6.38;;
52043;SDS011;38053;53.100;6.078;2023-03-13T03:08:42;16.33;;;6.00;;
52043;SDS011;38053;53.100;6.078;2023-03-13T03:11:08;12.30;;;5.15;;
52043;SDS011;38053;53.100;6.078;2023-03-13T03:13:34;15.63;;;5.22;;
52043;SDS011;38053;53.100;6.078;2023-03-13T03:16:05;10.60;;;5.82;;
52043;SDS011;38053;53.100;6.078;2023-03-13T03:18:35;17.38;;;5.88;;
52043;SDS011;38053;53.100;6.078;2023-03-13T03:21:03;13.23;;;5.20;;
52043;SDS011;38053;53.100;6.078;2023-03-13T03:23:34;11.88;;;5.63;;
52043;SDS011;38053;53.100;6.078;2023-03-13T03:26:01;16.05;;;5.13;;
52043;SDS011;38053;53.100;6.078;2023-03-13T03:28:28;12.65;;;4.93;;
52043;SDS011;38053;53.100;6.078;2023-03-13T03:30:55;16.13;;;5.82;;
52043;SDS011;38053;53.100;6.078;2023-03-13T03:33:27;11.30;;;5.38;;
52043;SDS011;38053;53.100;6.078;2023-03-13T03:35:57;10.07;;;6.05;;
52043;SDS011;38053;53.100;6.078;2023-03-13T03:38:29;9.15;;;4.55;;
52043;SDS011;38053;53.100;6.078;2023-03-13T03:40:54;9.98;;;6.00;;
52043;SDS011;38053;53.100;6.078;2023-03-13T03:43:21;10.43;;;5.30;;
52043;SDS011;38053;53.100;6.078;2023-03-13T03:45:47;11.90;;;5.25;;
52043;SDS011;38053;53.100;6.078;2023-03-13T03:48:12;10.55;;;4.85;;
52043;SDS011;38053;53.100;6.078;2023-03-13T03:50:38;9.82;;;4.70;;
52043;SDS011;38053;53.100;6.078;2023-03-13T03:53:04;7.95;;;4.90;;
52043;SDS011;38053;53.100;6.078;2023-03-13T03:55:29;13.13;;;5.57;;
52043;SDS011;38053;53.100;6.078;2023-03-13T03:57:57;13.27;;;5.68;;
52043;SDS011;38053;53.100;6.078;2023-03-13T04:00:26;9.95;;;5.63;;
52043;SDS011;38053;53.100;6.078;2023-03-13T04:02:52;11.60;;;6.05;;
52043;SDS011;38053;53.100;6.078;2023-03-13T04:05:18;12.23;;;7.60;;
52043;SDS011;38053;53.100;6.078;2023-03-13T04:07:44;15.32;;;7.85;;
52043;SDS011;38053;53.100;6.078;2023-03-13T04:10:10;14.43;;;8.82;;
52043;SDS011;38053;53.100;6.078;2023-03-13T04:12:36;16.30;;;9.75;;
52043;SDS011;38053;53.100;6.078;2023-03-13T04:15:03;18.90;;;11.50;;
52043;SDS011;38053;53.100;6.078;2023-03-13T04:17:29;19.42;;;10.85;;
52043;SDS011;38053;53.100;6.078;2023-03-13T04:19:55;22.52;;;12.32;;
52043;SDS011;38053;53.100;6.078;2023-03-13T04:22:20;22.25;;;11.40;;
52043;SDS011;38053;53.100;6.078;2023-03-13T04:24:46;20.25;;;11.18;;
52043;SDS011;38053;53.100;6.078;2023-03-13T04:27:14;21.75;;;12.82;;
52043;SDS011;38053;53.100;6.078;2023-03-13T04:29:39;24.02;;;11.13;;
52043;SDS011;38053;53.100;6.078;2023-03-13T04:32:05;18.75;;;9.35;;
52043;SDS011;38053;53.100;6.078;2023-03-13T04:34:31;21.67;;;10.90;;
52043;SDS011;38053;53.100;6.078;2023-03-13T04:36:57;28.42;;;11.93;;
52043;SDS011;38053;53.100;6.078;2023-03-13T04:39:23;30.92;;;12.43;;
52043;SDS011;38053;53.100;6.078;2023-03-13T04:41:53;17.17;;;9.70;;
52043;SDS011;38053;53.100;6.078;2023-03-13T04:44:19;14.67;;;9.53;;
52043;SDS011;38053;53.100;6.078;2023-03-13T04:46:46;13.52;;;7.57;;
52043;SDS011;38053;53.100;6.078;2023-03-13T04:49:12;14.32;;;8.63;;
52043;SDS011;38053;53.100;6.078;2023-03-13T04:51:39;15.15;;;8.90;;
52043;SDS011;38053;53.100;6.078;2023-03-13T04:54:05;17.90;;;8.55;;
52043;SDS011;38053;53.100;6.078;2023-03-13T04:56:31;20.50;;;9.30;;
52043;SDS011;38053;53.100;6.078;2023-03-13T04:58:57;19.98;;;9.77;;
52043;SDS011;38053;53.100;6.078;2023-03-13T05:01:23;17.25;;;7.65;;
52043;SDS011;38053;53.100;6.078;2023-03-13T05:03:53;22.45;;;8.65;;
52043;SDS011;38053;53.100;6.078;2023-03-13T05:06:19;18.45;;;8.48;;
52043;SDS011;38053;53.100;6.078;2023-03-13T05:08:45;21.23;;;9.65;;
52043;SDS011;38053;53.100;6.078;2023-03-13T05:11:11;21.42;;;8.60;;
52043;SDS011;38053;53.100;6.078;2023-03-13T05:13:37;22.08;;;7.03;;
52043;SDS011;38053;53.100;6.078;2023-03-13T05:16:03;13.77;;;6.35;;
52043;SDS011;38053;53.100;6.078;2023-03-13T05:18:31;19.85;;;6.20;;
52043;SDS011;38053;53.100;6.078;2023-03-13T05:21:01;18.38;;;5.88;;
52043;SDS011;38053;53.100;6.078;2023-03-13T05:23:27;19.05;;;6.55;;
52043;SDS011;38053;53.100;6.078;2023-03-13T05:25:53;18.00;;;5.63;;
52043;SDS011;38053;53.100;6.078;2023-03-13T05:28:19;18.77;;;5.63;;
52043;SDS011;38053;53.100;6.078;2023-03-13T05:30:49;18.75;;;5.35;;
52043;SDS011;38053;53.100;6.078;2023-03-13T05:33:20;16.88;;;4.97;;
52043;SDS011;38053;53.100;6.078;2023-03-13T05:35:53;33.13;;;5.70;;
52043;SDS011;38053;53.100;6.078;2023-03-13T05:38:18;22.35;;;6.32;;
52043;SDS011;38053;53.100;6.078;2023-03-13T05:40:44;16.92;;;5.72;;
52043;SDS011;38053;53.100;6.078;2023-03-13T05:43:10;15.95;;;6.57;;
52043;SDS011;38053;53.100;6.078;2023-03-13T05:45:35;23.85;;;5.22;;
52043;SDS011;38053;53.100;6.078;2023-03-13T05:48:04;22.27;;;5.85;;
52043;SDS011;38053;53.100;6.078;2023-03-13T05:50:33;20.33;;;5.75;;
52043;SDS011;38053;53.100;6.078;2023-03-13T05:52:59;17.85;;;6.15;;
52043;SDS011;38053;53.100;6.078;2023-03-13T05:55:28;26.23;;;6.60;;
52043;SDS011;38053;53.100;6.078;2023-03-13T05:57:53;26.25;;;7.13;;
52043;SDS011;38053;53.100;6.078;2023-03-13T06:00:20;21.60;;;4.93;;
52043;SDS011;38053;53.100;6.078;2023-03-13T06:02:45;24.08;;;6.57;;
52043;SDS011;38053;53.100;6.078;2023-03-13T06:05:13;26.15;;;7.45;;
52043;SDS011;38053;53.100;6.078;2023-03-13T06:07:38;27.38;;;7.40;;
52043;SDS011;38053;53.100;6.078;2023-03-13T06:10:04;20.73;;;7.53;;
52043;SDS011;38053;53.100;6.078;2023-03-13T06:12:44;26.30;;;6.13;;
52043;SDS011;38053;53.100;6.078;2023-03-13T06:15:16;11.82;;;5.35;;
52043;SDS011;38053;53.100;6.078;2023-03-13T06:17:43;26.63;;;6.72;;
52043;SDS011;38053;53.100;6.078;2023-03-13T06:20:09;17.45;;;6.88;;
52043;SDS011;38053;53.100;6.078;2023-03-13T06:22:38;21.25;;;5.90;;
52043;SDS011;38053;53.100;6.078;2023-03-13T06:25:04;17.65;;;5.70;;
52043;SDS011;38053;53.100;6.078;2023-03-13T06:27:30;20.00;;;5.65;;
52043;SDS011;38053;53.100;6.078;2023-03-13T06:29:56;14.88;;;5.70;;
52043;SDS011;38053;53.100;6.078;2023-03-13T06:32:22;18.45;;;5.55;;
52043;SDS011;38053;53.100;6.078;2023-03-13T06:34:48;20.40;;;5.38;;
52043;SDS011;38053;53.100;6.078;2023-03-13T06:37:16;18.52;;;4.90;;
52043;SDS011;38053;53.100;6.078;2023-03-13T06:39:42;23.48;;;6.50;;
52043;SDS011;38053;53.100;6.078;2023-03-13T06:42:07;17.15;;;6.60;;
52043;SDS011;38053;53.100;6.078;2023-03-13T06:44:36;16.85;;;4.57;;
52043;SDS011;38053;53.100;6.078;2023-03-13T06:47:02;20.92;;;5.05;;
52043;SDS011;38053;53.100;6.078;2023-03-13T06:49:27;17.95;;;4.72;;
52043;SDS011;38053;53.100;6.078;2023-03-13T06:51:55;22.45;;;5.75;;
52043;SDS011;38053;53.100;6.078;2023-03-13T06:54:23;21.38;;;5.53;;
52043;SDS011;38053;53.100;6.078;2023-03-13T06:56:50;20.50;;;5.95;;
52043;SDS011;38053;53.100;6.078;2023-03-13T06:59:15;21.02;;;5.97;;
52043;SDS011;38053;53.100;6.078;2023-03-13T07:01:41;22.35;;;6.00;;
52043;SDS011;38053;53.100;6.078;2023-03-13T07:04:09;19.60;;;5.50;;
52043;SDS011;38053;53.100;6.078;2023-03-13T07:06:36;25.42;;;6.18;;
52043;SDS011;38053;53.100;6.078;2023-03-13T07:09:02;17.77;;;6.10;;
52043;SDS011;38053;53.100;6.078;2023-03-13T07:11:29;13.93;;;4.85;;
52043;SDS011;38053;53.100;6.078;2023-03-13T07:13:56;18.52;;;4.57;;
52043;SDS011;38053;53.100;6.078;2023-03-13T07:16:24;21.13;;;5.53;;
52043;SDS011;38053;53.100;6.078;2023-03-13T07:18:50;16.90;;;5.05;;
52043;SDS011;38053;53.100;6.078;2023-03-13T07:21:16;25.08;;;6.93;;
52043;SDS011;38053;53.100;6.078;2023-03-13T07:23:41;21.67;;;5.43;;
52043;SDS011;38053;53.100;6.078;2023-03-13T07:26:10;18.95;;;6.30;;
52043;SDS011;38053;53.100;6.078;2023-03-13T07:28:41;26.42;;;5.05;;
52043;SDS011;38053;53.100;6.078;2023-03-13T07:33:40;21.08;;;5.47;;
52043;SDS011;38053;53.100;6.078;2023-03-13T07:36:10;15.55;;;5.43;;
52043;SDS011;38053;53.100;6.078;2023-03-13T07:38:39;12.07;;;3.90;;
52043;SDS011;38053;53.100;6.078;2023-03-13T07:41:09;16.63;;;4.50;;
52043;SDS011;38053;53.100;6.078;2023-03-13T07:43:40;19.35;;;5.32;;
52043;SDS011;38053;53.100;6.078;2023-03-13T07:46:10;13.27;;;5.40;;
52043;SDS011;38053;53.100;6.078;2023-03-13T07:48:38;12.90;;;3.53;;
52043;SDS011;38053;53.100;6.078;2023-03-13T07:51:09;15.98;;;4.30;;
52043;SDS011;38053;53.100;6.078;2023-03-13T07:53:43;12.75;;;4.40;;
52043;SDS011;38053;53.100;6.078;2023-03-13T07:56:12;16.52;;;4.30;;
52043;SDS011;38053;53.100;6.078;2023-03-13T07:58:40;18.30;;;4.60;;
52043;SDS011;38053;53.100;6.078;2023-03-13T08:01:17;14.98;;;3.55;;
52043;SDS011;38053;53.100;6.078;2023-03-13T08:03:44;11.70;;;3.30;;
52043;SDS011;38053;53.100;6.078;2023-03-13T08:06:13;13.93;;;4.30;;
52043;SDS011;38053;53.100;6.078;2023-03-13T08:08:44;11.20;;;3.33;;
52043;SDS011;38053;53.100;6.078;2023-03-13T08:11:21;10.52;;;3.35;;
52043;SDS011;38053;53.100;6.078;2023-03-13T08:13:51;13.27;;;3.70;;
52043;SDS011;38053;53.100;6.078;2023-03-13T08:16:23;9.32;;;3.65;;
52043;SDS011;38053;53.100;6.078;2023-03-13T08:18:55;9.88;;;3.72;;
52043;SDS011;38053;53.100;6.078;2023-03-13T08:21:23;12.07;;;3.72;;
52043;SDS011;38053;53.100;6.078;2023-03-13T08:23:59;8.85;;;3.40;;
52043;SDS011;38053;53.100;6.078;2023-03-13T08:26:28;17.00;;;4.15;;
52043;SDS011;38053;53.100;6.078;2023-03-13T08:28:57;13.82;;;4.30;;
52043;SDS011;38053;53.100;6.078;2023-03-13T08:31:31;11.15;;;4.07;;
52043;SDS011;38053;53.100;6.078;2023-03-13T08:34:01;19.15;;;5.60;;
52043;SDS011;38053;53.100;6.078;2023-03-13T08:36:29;16.42;;;3.50;;
52043;SDS011;38053;53.100;6.078;2023-03-13T08:38:58;16.13;;;2.83;;
52043;SDS011;38053;53.100;6.078;2023-03-13T08:41:26;12.98;;;3.13;;
52043;SDS011;38053;53.100;6.078;2023-03-13T08:43:54;14.82;;;3.42;;
52043;SDS011;38053;53.100;6.078;2023-03-13T08:46:21;10.93;;;3.83;;
52043;SDS011;38053;53.100;6.078;2023-03-13T08:48:47;12.30;;;3.30;;
52043;SDS011;38053;53.100;6.078;2023-03-13T08:51:16;15.43;;;2.97;;
52043;SDS011;38053;53.100;6.078;2023-03-13T08:53:43;13.27;;;2.95;;
52043;SDS011;38053;53.100;6.078;2023-03-13T08:56:09;7.68;;;2.60;;
52043;SDS011;38053;53.100;6.078;2023-03-13T08:58:37;16.05;;;3.50;;
52043;SDS011;38053;53.100;6.078;2023-03-13T09:01:04;17.38;;;4.55;;
52043;SDS011;38053;53.100;6.078;2023-03-13T09:03:31;10.60;;;2.70;;
52043;SDS011;38053;53.100;6.078;2023-03-13T09:05:58;13.02;;;3.38;;
52043;SDS011;38053;53.100;6.078;2023-03-13T09:08:24;9.70;;;2.75;;
52043;SDS011;38053;53.100;6.078;2023-03-13T09:10:58;16.42;;;3.38;;
52043;SDS011;38053;53.100;6.078;2023-03-13T09:13:29;17.08;;;3.28;;
52043;SDS011;38053;53.100;6.078;2023-03-13T09:15:57;13.77;;;3.63;;
52043;SDS011;38053;53.100;6.078;2023-03-13T09:18:28;20.35;;;4.07;;
52043;SDS011;38053;53.100;6.078;2023-03-13T09:20:56;12.45;;;3.72;;
52043;SDS011;38053;53.100;6.078;2023-03-13T09:23:22;10.38;;;2.67;;
52043;SDS011;38053;53.100;6.078;2023-03-13T09:25:54;13.48;;;3.30;;
52043;SDS011;38053;53.100;6.078;2023-03-13T09:28:21;11.07;;;3.13;;
52043;SDS011;38053;53.100;6.078;2023-03-13T09:30:49;15.05;;;3.70;;
52043;SDS011;38053;53.100;6.078;2023-03-13T09:33:17;16.38;;;3.50;;
52043;SDS011;38053;53.100;6.078;2023-03-13T09:35:48;18.25;;;3.97;;
52043;SDS011;38053;53.100;6.078;2023-03-13T09:38:20;18.40;;;5.10;;
52043;SDS011;38053;53.100;6.078;2023-03-13T09:40:47;19.02;;;4.10;;
52043;SDS011;38053;53.100;6.078;2023-03-13T09:43:38;19.60;;;4.70;;
52043;SDS011;38053;53.100;6.078;2023-03-13T09:46:10;15.82;;;3.05;;
52043;SDS011;38053;53.100;6.078;2023-03-13T09:49:02;13.30;;;3.43;;
52043;SDS011;38053;53.100;6.078;2023-03-13T09:51:38;13.93;;;3.42;;
52043;SDS011;38053;53.100;6.078;2023-03-13T09:56:58;22.02;;;3.90;;
52043;SDS011;38053;53.100;6.078;2023-03-13T10:02:17;18.60;;;3.95;;
52043;SDS011;38053;53.100;6.078;2023-03-13T10:05:11;18.92;;;4.38;;
52043;SDS011;38053;53.100;6.078;2023-03-13T10:07:55;16.40;;;4.30;;
52043;SDS011;38053;53.100;6.078;2023-03-13T10:10:57;15.38;;;4.10;;
52043;SDS011;38053;53.100;6.078;2023-03-13T10:13:33;26.55;;;5.13;;
52043;SDS011;38053;53.100;6.078;2023-03-13T10:16:24;19.00;;;5.55;;
52043;SDS011;38053;53.100;6.078;2023-03-13T10:18:55;20.52;;;3.78;;
52043;SDS011;38053;53.100;6.078;2023-03-13T10:21:24;18.60;;;4.32;;
52043;SDS011;38053;53.100;6.078;2023-03-13T10:26:28;22.05;;;5.93;;
52043;SDS011;38053;53.100;6.078;2023-03-13T10:29:00;18.70;;;5.55;;
52043;SDS011;38053;53.100;6.078;2023-03-13T10:31:43;22.58;;;6.13;;
52043;SDS011;38053;53.100;6.078;2023-03-13T10:34:26;22.75;;;4.65;;
52043;SDS011;38053;53.100;6.078;2023-03-13T10:36:57;21.80;;;5.97;;
52043;SDS011;38053;53.100;6.078;2023-03-13T10:39:28;18.95;;;4.50;;
52043;SDS011;38053;53.100;6.078;2023-03-13T10:42:36;15.10;;;4.05;;
52043;SDS011;38053;53.100;6.078;2023-03-13T10:44:45;34.85;;;6.22;;
52043;SDS011;38053;53.100;6.078;2023-03-13T10:47:13;29.42;;;6.57;;
52043;SDS011;38053;53.100;6.078;2023-03-13T10:49:49;15.13;;;3.80;;
52043;SDS011;38053;53.100;6.078;2023-03-13T10:55:12;24.17;;;5.25;;
52043;SDS011;38053;53.100;6.078;2023-03-13T10:57:52;22.35;;;4.72;;
52043;SDS011;38053;53.100;6.078;2023-03-13T11:03:16;13.75;;;4.03;;
52043;SDS011;38053;53.100;6.078;2023-03-13T11:05:58;17.33;;;5.88;;
52043;SDS011;38053;53.100;6.078;2023-03-13T11:08:27;14.15;;;4.68;;
52043;SDS011;38053;53.100;6.078;2023-03-13T11:11:00;14.85;;;3.67;;
52043;SDS011;38053;53.100;6.078;2023-03-13T11:13:40;15.38;;;4.32;;
52043;SDS011;38053;53.100;6.078;2023-03-13T11:16:18;25.70;;;4.78;;
52043;SDS011;38053;53.100;6.078;2023-03-13T11:24:19;13.38;;;2.75;;
52043;SDS011;38053;53.100;6.078;2023-03-13T11:32:55;15.18;;;4.53;;
52043;SDS011;38053;53.100;6.078;2023-03-13T11:35:34;10.80;;;3.40;;
52043;SDS011;38053;53.100;6.078;2023-03-13T11:38:16;14.80;;;3.63;;
52043;SDS011;38053;53.100;6.078;2023-03-13T11:41:04;13.20;;;3.50;;
52043;SDS011;38053;53.100;6.078;2023-03-13T11:57:04;20.65;;;3.90;;
52043;SDS011;38053;53.100;6.078;2023-03-13T11:59:44;22.65;;;4.15;;
52043;SDS011;38053;53.100;6.078;2023-03-13T12:05:15;14.73;;;4.68;;
52043;SDS011;38053;53.100;6.078;2023-03-13T12:07:46;18.23;;;5.10;;
52043;SDS011;38053;53.100;6.078;2023-03-13T12:10:33;20.45;;;4.00;;
52043;SDS011;38053;53.100;6.078;2023-03-13T12:13:05;21.02;;;3.97;;
52043;SDS011;38053;53.100;6.078;2023-03-13T12:15:55;20.00;;;4.32;;
52043;SDS011;38053;53.100;6.078;2023-03-13T12:18:36;33.75;;;6.43;;
52043;SDS011;38053;53.100;6.078;2023-03-13T12:21:06;18.38;;;5.15;;
52043;SDS011;38053;53.100;6.078;2023-03-13T12:37:59;15.50;;;3.55;;
52043;SDS011;38053;53.100;6.078;2023-03-13T12:43:31;15.65;;;3.80;;
52043;SDS011;38053;53.100;6.078;2023-03-13T12:48:43;21.63;;;5.13;;
52043;SDS011;38053;53.100;6.078;2023-03-13T12:51:27;23.90;;;5.38;;
52043;SDS011;38053;53.100;6.078;2023-03-13T12:59:48;24.25;;;6.03;;
52043;SDS011;38053;53.100;6.078;2023-03-13T13:02:21;24.08;;;5.45;;
52043;SDS011;38053;53.100;6.078;2023-03-13T13:04:53;20.35;;;5.35;;
52043;SDS011;38053;53.100;6.078;2023-03-13T13:09:59;24.90;;;5.40;;
52043;SDS011;38053;53.100;6.078;2023-03-13T13:12:44;25.17;;;5.07;;
52043;SDS011;38053;53.100;6.078;2023-03-13T13:15:22;21.33;;;5.43;;
52043;SDS011;38053;53.100;6.078;2023-03-13T13:20:34;34.05;;;5.53;;
52043;SDS011;38053;53.100;6.078;2023-03-13T13:25:53;20.33;;;5.28;;
52043;SDS011;38053;53.100;6.078;2023-03-13T13:28:25;21.90;;;5.97;;
52043;SDS011;38053;53.100;6.078;2023-03-13T13:30:59;28.88;;;5.93;;
52043;SDS011;38053;53.100;6.078;2023-03-13T13:33:34;32.55;;;6.28;;
52043;SDS011;38053;53.100;6.078;2023-03-13T13:38:55;29.95;;;8.07;;
52043;SDS011;38053;53.100;6.078;2023-03-13T13:41:23;19.92;;;5.40;;
52043;SDS011;38053;53.100;6.078;2023-03-13T13:46:47;23.63;;;5.80;;
52043;SDS011;38053;53.100;6.078;2023-03-13T13:49:14;25.33;;;6.25;;
52043;SDS011;38053;53.100;6.078;2023-03-13T13:54:35;35.13;;;6.18;;
52043;SDS011;38053;53.100;6.078;2023-03-13T13:57:23;22.80;;;5.47;;
52043;SDS011;38053;53.100;6.078;2023-03-13T14:02:49;24.73;;;5.38;;
52043;SDS011;38053;53.100;6.078;2023-03-13T14:05:24;30.80;;;5.72;;
52043;SDS011;38053;53.100;6.078;2023-03-13T14:10:29;19.88;;;5.75;;
52043;SDS011;38053;53.100;6.078;2023-03-13T14:13:10;25.00;;;6.32;;
52043;SDS011;38053;53.100;6.078;2023-03-13T14:26:27;26.00;;;6.15;;
52043;SDS011;38053;53.100;6.078;2023-03-13T14:28:59;32.08;;;6.75;;
52043;SDS011;38053;53.100;6.078;2023-03-13T14:31:30;23.73;;;5.47;;
52043;SDS011;38053;53.100;6.078;2023-03-13T14:34:02;24.45;;;6.72;;
52043;SDS011;38053;53.100;6.078;2023-03-13T14:36:30;26.00;;;6.20;;
52043;SDS011;38053;53.100;6.078;2023-03-13T14:39:15;34.80;;;7.28;;
52043;SDS011;38053;53.100;6.078;2023-03-13T14:42:01;30.88;;;7.53;;
52043;SDS011;38053;53.100;6.078;2023-03-13T14:44:37;33.25;;;7.25;;
52043;SDS011;38053;53.100;6.078;2023-03-13T14:49:57;27.23;;;6.82;;
52043;SDS011;38053;53.100;6.078;2023-03-13T14:52:29;35.03;;;6.70;;
52043;SDS011;38053;53.100;6.078;2023-03-13T14:55:02;23.65;;;7.15;;
52043;SDS011;38053;53.100;6.078;2023-03-13T14:57:55;32.10;;;6.28;;
52043;SDS011;38053;53.100;6.078;2023-03-13T15:00:26;22.45;;;6.85;;
52043;SDS011;38053;53.100;6.078;2023-03-13T15:05:42;33.83;;;6.47;;
52043;SDS011;38053;53.100;6.078;2023-03-13T15:08:12;25.30;;;6.72;;
52043;SDS011;38053;53.100;6.078;2023-03-13T15:10:42;33.42;;;6.30;;
52043;SDS011;38053;53.100;6.078;2023-03-13T15:13:16;34.67;;;7.63;;
52043;SDS011;38053;53.100;6.078;2023-03-13T15:15:48;27.27;;;6.72;;
52043;SDS011;38053;53.100;6.078;2023-03-13T15:18:19;29.70;;;6.05;;
52043;SDS011;38053;53.100;6.078;2023-03-13T15:20:49;36.83;;;8.18;;
52043;SDS011;38053;53.100;6.078;2023-03-13T15:23:23;29.10;;;6.45;;
52043;SDS011;38053;53.100;6.078;2023-03-13T15:25:48;24.55;;;5.32;;
52043;SDS011;38053;53.100;6.078;2023-03-13T15:28:15;32.67;;;6.60;;
52043;SDS011;38053;53.100;6.078;2023-03-13T15:30:44;42.00;;;8.75;;
52043;SDS011;38053;53.100;6.078;2023-03-13T15:33:15;23.80;;;5.65;;
52043;SDS011;38053;53.100;6.078;2023-03-13T15:35:43;30.85;;;7.50;;
52043;SDS011;38053;53.100;6.078;2023-03-13T15:38:11;23.80;;;5.57;;
52043;SDS011;38053;53.100;6.078;2023-03-13T15:40:39;25.48;;;6.60;;
52043;SDS011;38053;53.100;6.078;2023-03-13T15:43:05;25.45;;;7.22;;
52043;SDS011;38053;53.100;6.078;2023-03-13T15:45:31;29.20;;;5.95;;
52043;SDS011;38053;53.100;6.078;2023-03-13T15:47:58;27.30;;;5.95;;
52043;SDS011;38053;53.100;6.078;2023-03-13T15:50:28;27.05;;;5.93;;
52043;SDS011;38053;53.100;6.078;2023-03-13T15:52:58;25.23;;;5.47;;
52043;SDS011;38053;53.100;6.078;2023-03-13T15:55:29;21.80;;;5.07;;
52043;SDS011;38053;53.100;6.078;2023-03-13T15:57:55;28.45;;;6.68;;
52043;SDS011;38053;53.100;6.078;2023-03-13T16:00:22;38.00;;;7.20;;
52043;SDS011;38053;53.100;6.078;2023-03-13T16:02:49;24.98;;;5.63;;
52043;SDS011;38053;53.100;6.078;2023-03-13T16:05:15;28.23;;;8.75;;
52043;SDS011;38053;53.100;6.078;2023-03-13T16:07:41;27.58;;;7.68;;
52043;SDS011;38053;53.100;6.078;2023-03-13T16:10:40;35.78;;;8.32;;
52043;SDS011;38053;53.100;6.078;2023-03-13T16:12:59;35.70;;;8.98;;
52043;SDS011;38053;53.100;6.078;2023-03-13T16:15:25;39.50;;;7.82;;
52043;SDS011;38053;53.100;6.078;2023-03-13T16:17:50;27.38;;;6.63;;
52043;SDS011;38053;53.100;6.078;2023-03-13T16:20:17;26.20;;;6.60;;
52043;SDS011;38053;53.100;6.078;2023-03-13T16:22:48;36.88;;;7.90;;
52043;SDS011;38053;53.100;6.078;2023-03-13T16:25:14;33.88;;;7.10;;
52043;SDS011;38053;53.100;6.078;2023-03-13T16:27:41;27.58;;;7.80;;
52043;SDS011;38053;53.100;6.078;2023-03-13T16:30:15;35.40;;;8.38;;
52043;SDS011;38053;53.100;6.078;2023-03-13T16:32:43;28.23;;;7.32;;
52043;SDS011;38053;53.100;6.078;2023-03-13T16:35:09;34.38;;;6.95;;
52043;SDS011;38053;53.100;6.078;2023-03-13T16:37:35;35.35;;;6.75;;
52043;SDS011;38053;53.100;6.078;2023-03-13T16:40:00;43.85;;;7.75;;
52043;SDS011;38053;53.100;6.078;2023-03-13T16:42:28;42.22;;;8.60;;
52043;SDS011;38053;53.100;6.078;2023-03-13T16:44:54;35.15;;;8.05;;
52043;SDS011;38053;53.100;6.078;2023-03-13T16:47:21;27.83;;;6.95;;
52043;SDS011;38053;53.100;6.078;2023-03-13T16:49:51;32.28;;;8.50;;
52043;SDS011;38053;53.100;6.078;2023-03-13T16:52:17;34.40;;;8.13;;
52043;SDS011;38053;53.100;6.078;2023-03-13T16:54:43;32.15;;;7.75;;
52043;SDS011;38053;53.100;6.078;2023-03-13T16:57:14;36.80;;;8.13;;